createdAt,value
2023-03-05T00:01:29.736Z,11.02
2023-03-05T00:03:57.529Z,8.55
2023-03-05T00:06:27.671Z,7.95
2023-03-05T00:08:56.624Z,10.10
2023-03-05T00:11:25.590Z,7.30
2023-03-05T00:13:53.337Z,13.43
2023-03-05T00:16:22.072Z,8.32
2023-03-05T00:18:49.847Z,6.95
2023-03-05T00:21:25.451Z,7.35
2023-03-05T00:23:54.278Z,6.40
2023-03-05T00:26:25.865Z,8.77
2023-03-05T00:28:54.257Z,10.20
2023-03-05T00:31:26.538Z,5.43
2023-03-05T00:33:55.429Z,7.80
2023-03-05T00:36:24.357Z,10.77
2023-03-05T00:38:52.151Z,6.10
2023-03-05T00:41:18.980Z,9.30
2023-03-05T00:43:46.483Z,5.53
2023-03-05T00:46:13.431Z,7.80
2023-03-05T00:48:40.528Z,8.27
2023-03-05T00:51:09.056Z,6.97
2023-03-05T00:53:36.298Z,9.75
2023-03-05T00:56:04.040Z,7.25
2023-03-05T00:58:30.953Z,9.45
2023-03-05T01:01:00.179Z,6.55
2023-03-05T01:03:27.714Z,6.68
2023-03-05T01:05:57.261Z,10.25
2023-03-05T01:08:25.334Z,10.70
2023-03-05T01:10:52.273Z,7.03
2023-03-05T01:13:20.320Z,5.65
2023-03-05T01:15:48.675Z,7.15
2023-03-05T01:18:15.638Z,4.90
2023-03-05T01:20:42.618Z,8.23
2023-03-05T01:23:10.147Z,7.35
2023-03-05T01:25:37.258Z,8.90
2023-03-05T01:28:04.534Z,7.82
2023-03-05T01:30:33.195Z,9.32
2023-03-05T01:33:00.290Z,7.25
2023-03-05T01:35:27.419Z,8.30
2023-03-05T01:37:56.010Z,6.20
2023-03-05T01:40:29.875Z,7.05
2023-03-05T01:43:11.794Z,8.65
2023-03-05T01:46:00.043Z,7.72
2023-03-05T01:48:27.655Z,8.90
2023-03-05T01:50:54.792Z,7.95
2023-03-05T01:53:21.753Z,7.28
2023-03-05T01:55:49.039Z,10.80
2023-03-05T01:58:18.228Z,9.93
2023-03-05T02:00:50.339Z,5.47
2023-03-05T02:03:18.325Z,6.32
2023-03-05T02:05:45.407Z,12.85
2023-03-05T02:08:20.406Z,6.95
2023-03-05T02:10:52.616Z,5.80
2023-03-05T02:13:31.499Z,6.72
2023-03-05T02:16:00.460Z,9.20
2023-03-05T02:18:28.263Z,12.00
2023-03-05T02:20:57.797Z,9.73
2023-03-05T02:23:29.203Z,7.45
2023-03-05T02:25:56.977Z,8.57
2023-03-05T02:28:39.460Z,12.85
2023-03-05T02:31:20.390Z,8.70
2023-03-05T02:33:48.818Z,10.45
2023-03-05T02:36:17.135Z,8.02
2023-03-05T02:38:45.797Z,8.40
2023-03-05T02:41:14.126Z,5.10
2023-03-05T02:43:41.873Z,7.57
2023-03-05T02:46:09.720Z,7.47
2023-03-05T02:48:36.695Z,6.80
2023-03-05T02:51:06.672Z,8.75
2023-03-05T02:53:33.650Z,9.55
2023-03-05T02:56:00.810Z,6.43
2023-03-05T02:58:28.058Z,8.10
2023-03-05T03:00:54.964Z,9.38
2023-03-05T03:03:22.140Z,6.60
2023-03-05T03:05:49.057Z,8.85
2023-03-05T03:08:16.606Z,6.43
2023-03-05T03:10:43.529Z,4.70
2023-03-05T03:13:10.427Z,5.22
2023-03-05T03:15:37.941Z,7.72
2023-03-05T03:18:04.873Z,6.45
2023-03-05T03:20:32.589Z,6.10
2023-03-05T03:22:59.422Z,6.00
2023-03-05T03:25:26.302Z,3.90
2023-03-05T03:27:53.086Z,4.68
2023-03-05T03:30:20.142Z,5.90
2023-03-05T03:32:46.922Z,6.75
2023-03-05T03:35:14.348Z,4.70
2023-03-05T03:37:41.233Z,5.93
2023-03-05T03:40:09.275Z,6.60
2023-03-05T03:42:36.100Z,5.80
2023-03-05T03:45:03.664Z,4.78
2023-03-05T03:47:31.126Z,6.13
2023-03-05T03:49:58.866Z,5.20
2023-03-05T03:52:26.390Z,3.50
2023-03-05T03:54:55.641Z,3.45
2023-03-05T03:57:22.712Z,5.57
2023-03-05T03:59:50.332Z,4.45
2023-03-05T04:02:17.626Z,5.93
2023-03-05T04:04:44.637Z,4.30
2023-03-05T04:07:11.575Z,7.90
2023-03-05T04:09:38.772Z,2.72
2023-03-05T04:12:05.907Z,4.55
2023-03-05T04:14:32.777Z,4.30
2023-03-05T04:16:59.867Z,4.68
2023-03-05T04:19:28.350Z,3.58
2023-03-05T04:21:55.172Z,4.72
2023-03-05T04:24:22.036Z,3.17
2023-03-05T04:26:48.829Z,7.03
2023-03-05T04:29:15.664Z,3.08
2023-03-05T04:31:42.509Z,5.97
2023-03-05T04:34:09.303Z,5.22
2023-03-05T04:36:36.960Z,4.53
2023-03-05T04:39:04.941Z,4.55
2023-03-05T04:41:31.784Z,5.32
2023-03-05T04:43:58.537Z,5.75
2023-03-05T04:46:25.436Z,7.35
2023-03-05T04:48:52.343Z,5.07
2023-03-05T04:51:19.290Z,4.80
2023-03-05T04:53:46.060Z,4.18
2023-03-05T04:56:12.883Z,3.42
2023-03-05T04:58:39.807Z,3.92
2023-03-05T05:01:07.475Z,4.10
2023-03-05T05:03:34.743Z,4.65
2023-03-05T05:06:02.623Z,2.88
2023-03-05T05:08:29.458Z,3.20
2023-03-05T05:11:05.568Z,4.75
2023-03-05T05:13:33.859Z,4.18
2023-03-05T05:16:00.887Z,7.45
2023-03-05T05:18:27.785Z,4.78
2023-03-05T05:20:54.602Z,3.00
2023-03-05T05:23:21.493Z,5.75
2023-03-05T05:26:06.533Z,3.03
2023-03-05T05:28:35.194Z,3.80
2023-03-05T05:31:07.862Z,6.28
2023-03-05T05:33:35.165Z,7.05
2023-03-05T05:36:08.049Z,3.50
2023-03-05T05:38:35.360Z,6.63
2023-03-05T05:41:15.359Z,8.68
2023-03-05T05:43:42.658Z,4.03
2023-03-05T05:46:17.667Z,5.30
2023-03-05T05:48:45.782Z,5.22
2023-03-05T05:51:20.150Z,5.53
2023-03-05T05:53:47.837Z,6.35
2023-03-05T05:56:16.561Z,4.38
2023-03-05T05:58:47.330Z,4.25
2023-03-05T06:01:30.548Z,4.45
2023-03-05T06:03:58.753Z,3.40
2023-03-05T06:06:27.603Z,2.90
2023-03-05T06:08:55.132Z,4.72
2023-03-05T06:11:22.986Z,3.15
2023-03-05T06:13:49.915Z,2.90
2023-03-05T06:16:21.620Z,2.10
2023-03-05T06:18:48.647Z,3.95
2023-03-05T06:21:19.092Z,5.25
2023-03-05T06:23:48.140Z,3.25
2023-03-05T06:26:19.969Z,3.45
2023-03-05T06:28:47.172Z,4.68
2023-03-05T06:31:18.795Z,2.00
2023-03-05T06:33:45.967Z,3.22
2023-03-05T06:36:17.197Z,5.07
2023-03-05T06:38:44.463Z,5.85
2023-03-05T06:41:15.680Z,1.83
2023-03-05T06:43:45.489Z,2.67
2023-03-05T06:46:16.223Z,2.80
2023-03-05T06:48:44.002Z,4.80
2023-03-05T06:51:24.889Z,2.72
2023-03-05T06:53:53.522Z,3.22
2023-03-05T06:56:22.215Z,4.70
2023-03-05T06:58:51.190Z,3.50
2023-03-05T07:01:19.639Z,4.22
2023-03-05T07:03:51.377Z,3.80
2023-03-05T07:06:18.665Z,4.28
2023-03-05T07:08:45.917Z,5.15
2023-03-05T07:11:20.021Z,3.08
2023-03-05T07:13:47.798Z,2.33
2023-03-05T07:16:27.632Z,3.20
2023-03-05T07:18:57.729Z,6.60
2023-03-05T07:21:28.659Z,3.13
2023-03-05T07:24:01.930Z,2.83
2023-03-05T07:26:33.364Z,2.05
2023-03-05T07:29:01.704Z,3.97
2023-03-05T07:31:31.597Z,4.22
2023-03-05T07:34:00.791Z,5.10
2023-03-05T07:36:28.829Z,3.28
2023-03-05T07:38:56.027Z,3.47
2023-03-05T07:41:23.739Z,3.70
2023-03-05T07:43:54.170Z,5.13
2023-03-05T07:46:26.857Z,4.28
2023-03-05T07:48:55.344Z,2.92
2023-03-05T07:51:25.493Z,4.53
2023-03-05T07:53:55.589Z,1.83
2023-03-05T07:56:35.138Z,3.80
2023-03-05T07:59:08.760Z,3.20
2023-03-05T08:01:36.095Z,4.18
2023-03-05T08:04:05.399Z,1.65
2023-03-05T08:06:32.276Z,3.38
2023-03-05T08:09:00.261Z,2.30
2023-03-05T08:11:28.485Z,3.30
2023-03-05T08:13:56.165Z,3.70
2023-03-05T08:16:25.896Z,2.92
2023-03-05T08:18:57.902Z,4.65
2023-03-05T08:21:33.695Z,3.55
2023-03-05T08:24:07.344Z,2.35
2023-03-05T08:26:40.277Z,1.75
2023-03-05T08:29:08.861Z,3.80
2023-03-05T08:31:37.392Z,4.07
2023-03-05T08:34:05.522Z,3.20
2023-03-05T08:36:32.658Z,6.93
2023-03-05T08:38:59.942Z,4.60
2023-03-05T08:41:27.185Z,2.92
2023-03-05T08:43:54.235Z,4.35
2023-03-05T08:46:21.067Z,2.10
2023-03-05T08:48:47.869Z,5.32
2023-03-05T08:51:19.281Z,3.42
2023-03-05T08:53:47.613Z,10.95
2023-03-05T08:56:15.436Z,14.88
2023-03-05T08:58:43.910Z,11.45
2023-03-05T09:01:11.464Z,7.88
2023-03-05T09:03:39.295Z,5.88
2023-03-05T09:06:10.821Z,4.85
2023-03-05T09:08:38.587Z,4.88
2023-03-05T09:11:09.813Z,3.88
2023-03-05T09:13:37.046Z,4.13
2023-03-05T09:16:08.910Z,4.30
2023-03-05T09:18:36.672Z,5.72
2023-03-05T09:21:14.797Z,4.63
2023-03-05T09:23:44.626Z,3.63
2023-03-05T09:26:13.735Z,3.85
2023-03-05T09:28:41.863Z,2.78
2023-03-05T09:31:10.265Z,3.63
2023-03-05T09:33:38.614Z,2.45
2023-03-05T09:36:21.340Z,2.55
2023-03-05T09:38:48.648Z,2.78
2023-03-05T09:41:54.108Z,3.33
2023-03-05T09:44:41.555Z,2.97
2023-03-05T09:47:23.274Z,2.90
2023-03-05T09:50:10.270Z,2.65
2023-03-05T09:52:55.397Z,3.03
2023-03-05T09:55:40.869Z,3.58
2023-03-05T09:58:41.131Z,2.28
2023-03-05T10:01:17.326Z,4.20
2023-03-05T10:04:16.542Z,2.88
2023-03-05T10:07:00.321Z,2.83
2023-03-05T10:10:00.326Z,2.22
2023-03-05T10:12:56.830Z,3.40
2023-03-05T10:15:37.519Z,4.18
2023-03-05T10:18:37.081Z,4.90
2023-03-05T10:21:11.314Z,5.40
2023-03-05T10:24:06.028Z,2.58
2023-03-05T10:27:34.168Z,4.07
2023-03-05T10:30:20.610Z,2.92
2023-03-05T10:32:53.675Z,2.65
2023-03-05T10:36:04.099Z,4.53
2023-03-05T10:39:04.778Z,4.43
2023-03-05T10:41:53.637Z,2.72
2023-03-05T10:44:44.254Z,2.47
2023-03-05T10:47:44.085Z,2.20
2023-03-05T10:50:28.437Z,5.95
2023-03-05T10:53:24.830Z,2.42
2023-03-05T10:55:56.130Z,2.80
2023-03-05T10:58:25.011Z,3.65
2023-03-05T11:01:21.994Z,2.85
2023-03-05T11:04:25.897Z,3.72
2023-03-05T11:06:52.881Z,4.68
2023-03-05T11:09:37.755Z,5.03
2023-03-05T11:12:10.479Z,3.65
2023-03-05T11:14:42.183Z,3.28
2023-03-05T11:17:28.325Z,3.63
2023-03-05T11:19:58.583Z,1.42
2023-03-05T11:22:26.105Z,3.90
2023-03-05T11:25:12.413Z,1.92
2023-03-05T11:27:50.232Z,5.13
2023-03-05T11:31:03.154Z,1.73
2023-03-05T11:33:31.051Z,1.27
2023-03-05T11:36:26.085Z,2.30
2023-03-05T11:38:58.710Z,1.98
2023-03-05T11:41:43.660Z,3.10
2023-03-05T11:44:35.358Z,6.93
2023-03-05T11:47:19.892Z,2.78
2023-03-05T11:49:51.241Z,5.22
2023-03-05T11:52:30.979Z,5.97
2023-03-05T11:55:17.916Z,2.63
2023-03-05T11:58:22.087Z,2.88
2023-03-05T12:00:48.965Z,3.03
2023-03-05T12:03:25.789Z,4.10
2023-03-05T12:06:03.404Z,2.35
2023-03-05T12:08:37.206Z,2.40
2023-03-05T12:11:20.495Z,2.92
2023-03-05T12:13:55.889Z,3.42
2023-03-05T12:16:48.271Z,4.30
2023-03-05T12:19:28.381Z,3.90
2023-03-05T12:21:55.508Z,4.40
2023-03-05T12:24:27.957Z,4.32
2023-03-05T12:27:02.014Z,3.38
2023-03-05T12:29:46.437Z,2.75
2023-03-05T12:32:22.643Z,5.30
2023-03-05T12:35:00.960Z,2.50
2023-03-05T12:37:27.833Z,4.82
2023-03-05T12:40:00.957Z,2.30
2023-03-05T12:42:31.314Z,2.53
2023-03-05T12:45:14.354Z,4.30
2023-03-05T12:47:46.507Z,3.10
2023-03-05T12:50:28.732Z,2.78
2023-03-05T12:53:18.917Z,2.08
2023-03-05T12:55:51.601Z,3.90
2023-03-05T12:58:44.423Z,1.90
2023-03-05T13:01:11.154Z,4.18
2023-03-05T13:04:06.948Z,4.78
2023-03-05T13:06:36.050Z,3.85
2023-03-05T13:09:31.681Z,3.30
2023-03-05T13:11:59.050Z,2.25
2023-03-05T13:14:39.357Z,1.98
2023-03-05T13:17:35.508Z,3.58
2023-03-05T13:20:37.516Z,6.95
2023-03-05T13:23:26.533Z,2.80
2023-03-05T13:26:15.177Z,1.88
2023-03-05T13:28:44.871Z,6.68
2023-03-05T13:31:23.043Z,2.03
2023-03-05T13:34:10.840Z,6.10
2023-03-05T13:36:38.891Z,3.28
2023-03-05T13:39:07.492Z,3.10
2023-03-05T13:41:34.498Z,5.30
2023-03-05T13:44:03.043Z,8.48
2023-03-05T13:46:39.159Z,3.88
2023-03-05T13:49:27.134Z,6.00
2023-03-05T13:51:57.755Z,5.35
2023-03-05T13:54:27.814Z,10.23
2023-03-05T13:57:06.704Z,6.43
2023-03-05T13:59:39.083Z,3.38
2023-03-05T14:02:20.605Z,5.88
2023-03-05T14:04:48.389Z,9.00
2023-03-05T14:07:37.290Z,5.30
2023-03-05T14:10:20.407Z,5.43
2023-03-05T14:12:51.319Z,8.50
2023-03-05T14:15:35.734Z,5.78
2023-03-05T14:18:11.315Z,4.43
2023-03-05T14:21:08.814Z,4.40
2023-03-05T14:23:47.665Z,5.32
2023-03-05T14:26:32.492Z,10.57
2023-03-05T14:29:06.881Z,5.45
2023-03-05T14:31:53.277Z,3.42
2023-03-05T14:34:40.020Z,12.10
2023-03-05T14:37:23.146Z,4.70
2023-03-05T14:40:06.252Z,3.95
2023-03-05T14:42:38.775Z,9.43
2023-03-05T14:45:20.291Z,7.70
2023-03-05T14:47:49.386Z,5.35
2023-03-05T14:50:20.681Z,4.20
2023-03-05T14:52:51.242Z,3.67
2023-03-05T14:55:22.977Z,4.65
2023-03-05T14:57:51.811Z,3.65
2023-03-05T15:00:23.941Z,3.47
2023-03-05T15:02:51.534Z,3.50
2023-03-05T15:05:19.568Z,1.85
2023-03-05T15:07:48.311Z,3.72
2023-03-05T15:10:18.583Z,1.70
2023-03-05T15:12:46.296Z,2.08
2023-03-05T15:15:15.381Z,2.28
2023-03-05T15:17:47.806Z,3.20
2023-03-05T15:20:20.171Z,1.45
2023-03-05T15:22:47.126Z,2.00
2023-03-05T15:25:14.799Z,2.28
2023-03-05T15:27:41.746Z,2.15
2023-03-05T15:30:21.108Z,1.20
2023-03-05T15:32:48.197Z,1.27
2023-03-05T15:35:15.208Z,0.82
2023-03-05T15:37:42.156Z,2.50
2023-03-05T15:40:10.184Z,1.77
2023-03-05T15:42:37.029Z,2.70
2023-03-05T15:45:04.338Z,2.75
2023-03-05T15:47:33.369Z,1.17
2023-03-05T15:50:00.686Z,2.40
2023-03-05T15:52:27.665Z,1.55
2023-03-05T15:54:54.494Z,0.93
2023-03-05T15:57:22.650Z,6.45
2023-03-05T15:59:50.045Z,3.90
2023-03-05T16:02:17.077Z,7.10
2023-03-05T16:04:43.902Z,3.72
2023-03-05T16:07:13.019Z,3.75
2023-03-05T16:09:46.291Z,1.67
2023-03-05T16:12:21.452Z,3.53
2023-03-05T16:14:51.892Z,7.32
2023-03-05T16:17:21.877Z,6.47
2023-03-05T16:19:54.472Z,5.50
2023-03-05T16:22:21.425Z,5.63
2023-03-05T16:24:48.277Z,4.60
2023-03-05T16:27:15.105Z,2.17
2023-03-05T16:29:42.046Z,3.08
2023-03-05T16:32:09.087Z,3.60
2023-03-05T16:34:36.153Z,4.40
2023-03-05T16:37:06.734Z,3.00
2023-03-05T16:39:33.613Z,4.70
2023-03-05T16:42:00.684Z,3.65
2023-03-05T16:44:27.539Z,2.97
2023-03-05T16:46:56.575Z,3.15
2023-03-05T16:49:24.062Z,9.70
2023-03-05T16:51:51.020Z,2.97
2023-03-05T16:54:18.123Z,2.38
2023-03-05T16:56:44.968Z,3.03
2023-03-05T16:59:11.756Z,2.67
2023-03-05T17:01:38.608Z,3.47
2023-03-05T17:04:05.840Z,3.30
2023-03-05T17:06:34.740Z,4.28
2023-03-05T17:09:02.773Z,5.78
2023-03-05T17:11:29.956Z,2.97
2023-03-05T17:13:57.002Z,4.13
2023-03-05T17:16:24.084Z,4.88
2023-03-05T17:18:50.977Z,3.88
2023-03-05T17:21:17.978Z,5.45
2023-03-05T17:23:44.820Z,5.28
2023-03-05T17:26:16.261Z,3.65
2023-03-05T17:28:44.611Z,3.97
2023-03-05T17:31:12.556Z,3.42
2023-03-05T17:33:41.568Z,4.28
2023-03-05T17:36:18.944Z,3.53
2023-03-05T17:38:47.562Z,4.18
2023-03-05T17:41:16.622Z,2.60
2023-03-05T17:43:44.113Z,5.45
2023-03-05T17:46:11.702Z,10.27
2023-03-05T17:48:39.261Z,6.70
2023-03-05T17:51:13.056Z,5.57
2023-03-05T17:53:40.434Z,8.15
2023-03-05T17:56:13.988Z,4.53
2023-03-05T17:58:41.114Z,6.00
2023-03-05T18:01:08.919Z,7.47
2023-03-05T18:03:36.787Z,10.98
2023-03-05T18:06:04.901Z,9.82
2023-03-05T18:08:32.347Z,9.63
2023-03-05T18:10:59.408Z,6.05
2023-03-05T18:13:26.337Z,14.13
2023-03-05T18:15:53.451Z,8.77
2023-03-05T18:18:20.346Z,6.65
2023-03-05T18:20:48.645Z,12.30
2023-03-05T18:23:16.097Z,7.88
2023-03-05T18:25:44.387Z,10.55
2023-03-05T18:28:15.202Z,7.68
2023-03-05T18:30:45.161Z,10.27
2023-03-05T18:33:24.062Z,9.70
2023-03-05T18:35:53.298Z,8.73
2023-03-05T18:38:23.677Z,14.88
2023-03-05T18:40:52.579Z,14.02
2023-03-05T18:43:22.360Z,10.32
2023-03-05T18:45:51.331Z,26.38
2023-03-05T18:48:19.310Z,34.78
2023-03-05T18:50:50.879Z,33.25
2023-03-05T18:53:18.226Z,32.95
2023-03-05T18:55:45.502Z,44.22
2023-03-05T18:58:17.407Z,33.15
2023-03-05T19:00:46.736Z,18.60
2023-03-05T19:03:15.478Z,14.82
2023-03-05T19:05:43.078Z,13.02
2023-03-05T19:08:11.292Z,12.20
2023-03-05T19:10:38.471Z,16.70
2023-03-05T19:13:30.109Z,8.43
2023-03-05T19:15:56.998Z,5.32
2023-03-05T19:18:26.344Z,6.13
2023-03-05T19:20:56.352Z,8.18
2023-03-05T19:23:23.710Z,9.25
2023-03-05T19:25:50.518Z,11.93
2023-03-05T19:28:17.435Z,8.25
2023-03-05T19:30:44.340Z,6.53
2023-03-05T19:33:11.213Z,17.80
2023-03-05T19:35:38.782Z,8.88
2023-03-05T19:38:05.621Z,11.32
2023-03-05T19:40:32.473Z,10.82
2023-03-05T19:43:00.135Z,5.88
2023-03-05T19:45:27.252Z,7.22
2023-03-05T19:47:54.020Z,4.80
2023-03-05T19:50:20.961Z,6.10
2023-03-05T19:52:47.873Z,5.32
2023-03-05T19:55:15.001Z,4.93
2023-03-05T19:57:41.772Z,3.88
2023-03-05T20:00:09.849Z,5.18
2023-03-05T20:02:36.713Z,4.28
2023-03-05T20:05:03.682Z,7.00
2023-03-05T20:07:30.606Z,3.65
2023-03-05T20:09:57.462Z,3.03
2023-03-05T20:12:24.303Z,4.95
2023-03-05T20:14:51.258Z,3.90
2023-03-05T20:17:19.481Z,3.65
2023-03-05T20:19:46.283Z,5.55
2023-03-05T20:22:13.127Z,3.42
2023-03-05T20:24:40.065Z,3.03
2023-03-05T20:27:07.142Z,3.20
2023-03-05T20:29:33.947Z,5.07
2023-03-05T20:32:00.884Z,3.20
2023-03-05T20:34:27.715Z,8.63
2023-03-05T20:36:54.563Z,13.90
2023-03-05T20:39:21.447Z,61.42
2023-03-05T20:41:49.268Z,26.15
2023-03-05T20:44:16.478Z,12.20
2023-03-05T20:46:51.890Z,5.03
2023-03-05T20:49:19.212Z,4.18
2023-03-05T20:51:50.111Z,3.97
2023-03-05T20:54:17.100Z,2.30
2023-03-05T20:56:44.072Z,2.58
2023-03-05T20:59:11.120Z,3.47
2023-03-05T21:01:40.731Z,2.67
2023-03-05T21:04:08.437Z,4.03
2023-03-05T21:06:36.379Z,3.08
2023-03-05T21:09:03.923Z,4.53
2023-03-05T21:11:31.846Z,3.63
2023-03-05T21:13:59.201Z,4.35
2023-03-05T21:16:28.114Z,4.40
2023-03-05T21:18:57.095Z,3.60
2023-03-05T21:21:24.695Z,3.15
2023-03-05T21:23:52.178Z,1.75
2023-03-05T21:26:19.433Z,3.33
2023-03-05T21:28:46.395Z,3.30
2023-03-05T21:31:21.291Z,3.78
2023-03-05T21:33:48.816Z,2.80
2023-03-05T21:36:19.110Z,3.28
2023-03-05T21:38:49.852Z,3.58
2023-03-05T21:41:18.146Z,4.25
2023-03-05T21:43:45.112Z,5.05
2023-03-05T21:46:12.211Z,5.00
2023-03-05T21:48:39.160Z,5.57
2023-03-05T21:51:09.567Z,3.92
2023-03-05T21:53:36.536Z,4.25
2023-03-05T21:56:17.436Z,3.30
2023-03-05T21:58:46.896Z,4.18
2023-03-05T22:01:16.046Z,3.08
2023-03-05T22:03:42.946Z,3.58
2023-03-05T22:06:11.466Z,2.55
2023-03-05T22:08:38.554Z,3.40
2023-03-05T22:11:10.418Z,2.92
2023-03-05T22:13:38.290Z,2.28
2023-03-05T22:16:05.998Z,3.10
2023-03-05T22:18:33.651Z,1.73
2023-03-05T22:21:00.613Z,5.18
2023-03-05T22:23:31.245Z,2.63
2023-03-05T22:26:07.574Z,1.83
2023-03-05T22:28:36.128Z,3.00
2023-03-05T22:31:03.084Z,1.77
2023-03-05T22:33:31.345Z,1.25
2023-03-05T22:35:59.335Z,4.55
2023-03-05T22:38:26.272Z,2.28
2023-03-05T22:40:53.365Z,3.15
2023-03-05T22:43:21.058Z,2.10
2023-03-05T22:45:47.983Z,2.55
2023-03-05T22:48:15.625Z,2.92
2023-03-05T22:50:44.248Z,3.38
2023-03-05T22:53:12.436Z,2.42
2023-03-05T22:55:42.178Z,4.03
2023-03-05T22:58:09.250Z,3.17
2023-03-05T23:00:36.630Z,2.97
2023-03-05T23:03:03.776Z,2.65
2023-03-05T23:05:30.593Z,2.50
2023-03-05T23:07:57.550Z,3.95
2023-03-05T23:10:28.613Z,3.58
2023-03-05T23:12:58.178Z,4.43
2023-03-05T23:15:37.239Z,2.55
2023-03-05T23:18:06.349Z,5.88
2023-03-05T23:20:36.860Z,2.60
2023-03-05T23:23:04.430Z,2.80
2023-03-05T23:25:34.581Z,2.72
2023-03-05T23:28:03.615Z,4.10
2023-03-05T23:30:34.407Z,3.85
2023-03-05T23:33:18.818Z,2.20
2023-03-05T23:35:58.611Z,4.78
2023-03-05T23:38:29.268Z,4.05
2023-03-05T23:41:01.054Z,3.95
2023-03-05T23:43:28.761Z,4.40
2023-03-05T23:45:56.778Z,4.93
2023-03-05T23:48:25.646Z,3.50
2023-03-05T23:50:53.226Z,4.22
2023-03-05T23:53:28.294Z,3.35
2023-03-05T23:55:55.784Z,5.85
2023-03-05T23:58:23.307Z,4.25
